sensor_id;sensor_type;location;lat;lon;timestamp;pressure;altitude;pressure_sealevel;temperature
76541;BMP280;65385;55.772;37.658;2023-03-01T00:00:35;98882.06;;;-5.21
76541;BMP280;65385;55.772;37.658;2023-03-01T00:01:35;98884.09;;;-5.16
76541;BMP280;65385;55.772;37.658;2023-03-01T00:02:36;98891.72;;;-5.16
76541;BMP280;65385;55.772;37.658;2023-03-01T00:03:37;98871.88;;;-5.21
76541;BMP280;65385;55.772;37.658;2023-03-01T00:04:37;98883.66;;;-5.20
76541;BMP280;65385;55.772;37.658;2023-03-01T00:05:44;98879.84;;;-5.24
76541;BMP280;65385;55.772;37.658;2023-03-01T00:06:45;98883.97;;;-5.23
76541;BMP280;65385;55.772;37.658;2023-03-01T00:07:46;98877.63;;;-5.27
76541;BMP280;65385;55.772;37.658;2023-03-01T00:08:47;98889.69;;;-5.21
76541;BMP280;65385;55.772;37.658;2023-03-01T00:09:47;98880.47;;;-5.22
76541;BMP280;65385;55.772;37.658;2023-03-01T00:10:48;98883.81;;;-5.21
76541;BMP280;65385;55.772;37.658;2023-03-01T00:11:48;98870.78;;;-5.27
76541;BMP280;65385;55.772;37.658;2023-03-01T00:12:49;98880.19;;;-5.27
76541;BMP280;65385;55.772;37.658;2023-03-01T00:13:52;98868.09;;;-5.33
76541;BMP280;65385;55.772;37.658;2023-03-01T00:14:52;98868.41;;;-5.28
76541;BMP280;65385;55.772;37.658;2023-03-01T00:15:53;98873.00;;;-5.23
76541;BMP280;65385;55.772;37.658;2023-03-01T00:16:53;98875.38;;;-5.22
76541;BMP280;65385;55.772;37.658;2023-03-01T00:17:54;98867.75;;;-5.22
76541;BMP280;65385;55.772;37.658;2023-03-01T00:18:55;98871.41;;;-5.25
76541;BMP280;65385;55.772;37.658;2023-03-01T00:19:56;98868.06;;;-5.25
76541;BMP280;65385;55.772;37.658;2023-03-01T00:20:56;98874.59;;;-5.22
76541;BMP280;65385;55.772;37.658;2023-03-01T00:21:57;98876.63;;;-5.26
76541;BMP280;65385;55.772;37.658;2023-03-01T00:22:57;98872.88;;;-5.30
76541;BMP280;65385;55.772;37.658;2023-03-01T00:23:58;98870.06;;;-5.35
76541;BMP280;65385;55.772;37.658;2023-03-01T00:24:58;98868.47;;;-5.36
76541;BMP280;65385;55.772;37.658;2023-03-01T00:25:59;98855.72;;;-5.36
76541;BMP280;65385;55.772;37.658;2023-03-01T00:26:59;98855.72;;;-5.36
76541;BMP280;65385;55.772;37.658;2023-03-01T00:28:00;98868.28;;;-5.35
76541;BMP280;65385;55.772;37.658;2023-03-01T00:29:01;98868.72;;;-5.31
76541;BMP280;65385;55.772;37.658;2023-03-01T00:30:02;98864.91;;;-5.27
76541;BMP280;65385;55.772;37.658;2023-03-01T00:31:13;98863.13;;;-5.27
76541;BMP280;65385;55.772;37.658;2023-03-01T00:32:15;98866.16;;;-5.23
76541;BMP280;65385;55.772;37.658;2023-03-01T00:33:15;98858.81;;;-5.26
76541;BMP280;65385;55.772;37.658;2023-03-01T00:34:16;98868.25;;;-5.27
76541;BMP280;65385;55.772;37.658;2023-03-01T00:35:17;98866.81;;;-5.29
76541;BMP280;65385;55.772;37.658;2023-03-01T00:36:17;98863.22;;;-5.35
76541;BMP280;65385;55.772;37.658;2023-03-01T00:37:17;98868.09;;;-5.33
76541;BMP280;65385;55.772;37.658;2023-03-01T00:38:18;98860.66;;;-5.35
76541;BMP280;65385;55.772;37.658;2023-03-01T00:39:18;98862.56;;;-5.37
76541;BMP280;65385;55.772;37.658;2023-03-01T00:40:19;98864.16;;;-5.36
76541;BMP280;65385;55.772;37.658;2023-03-01T00:41:20;98872.22;;;-5.32
76541;BMP280;65385;55.772;37.658;2023-03-01T00:42:22;98858.72;;;-5.33
76541;BMP280;65385;55.772;37.658;2023-03-01T00:43:23;98859.19;;;-5.29
76541;BMP280;65385;55.772;37.658;2023-03-01T00:44:24;98861.44;;;-5.34
76541;BMP280;65385;55.772;37.658;2023-03-01T00:45:26;98869.25;;;-5.36
76541;BMP280;65385;55.772;37.658;2023-03-01T00:46:27;98864.78;;;-5.34
76541;BMP280;65385;55.772;37.658;2023-03-01T00:47:29;98865.22;;;-5.30
76541;BMP280;65385;55.772;37.658;2023-03-01T00:48:29;98854.06;;;-5.29
76541;BMP280;65385;55.772;37.658;2023-03-01T00:49:30;98870.63;;;-5.25
76541;BMP280;65385;55.772;37.658;2023-03-01T00:50:31;98862.69;;;-5.30
76541;BMP280;65385;55.772;37.658;2023-03-01T00:51:32;98861.72;;;-5.29
76541;BMP280;65385;55.772;37.658;2023-03-01T00:52:32;98864.72;;;-5.26
76541;BMP280;65385;55.772;37.658;2023-03-01T00:53:34;98863.31;;;-5.28
76541;BMP280;65385;55.772;37.658;2023-03-01T00:54:34;98864.78;;;-5.34
76541;BMP280;65385;55.772;37.658;2023-03-01T00:55:36;98861.78;;;-5.37
76541;BMP280;65385;55.772;37.658;2023-03-01T00:56:36;98870.75;;;-5.41
76541;BMP280;65385;55.772;37.658;2023-03-01T00:57:37;98852.25;;;-5.43
76541;BMP280;65385;55.772;37.658;2023-03-01T00:58:38;98869.28;;;-5.44
76541;BMP280;65385;55.772;37.658;2023-03-01T00:59:39;98864.72;;;-5.48
76541;BMP280;65385;55.772;37.658;2023-03-01T01:00:41;98864.72;;;-5.48
76541;BMP280;65385;55.772;37.658;2023-03-01T01:01:41;98859.25;;;-5.45
76541;BMP280;65385;55.772;37.658;2023-03-01T01:02:42;98858.47;;;-5.46
76541;BMP280;65385;55.772;37.658;2023-03-01T01:03:51;98860.38;;;-5.48
76541;BMP280;65385;55.772;37.658;2023-03-01T01:04:52;98864.88;;;-5.50
76541;BMP280;65385;55.772;37.658;2023-03-01T01:05:53;98863.47;;;-5.52
76541;BMP280;65385;55.772;37.658;2023-03-01T01:06:53;98849.13;;;-5.53
76541;BMP280;65385;55.772;37.658;2023-03-01T01:07:54;98858.38;;;-5.52
76541;BMP280;65385;55.772;37.658;2023-03-01T01:08:55;98850.09;;;-5.54
76541;BMP280;65385;55.772;37.658;2023-03-01T01:09:56;98860.91;;;-5.52
76541;BMP280;65385;55.772;37.658;2023-03-01T01:10:56;98855.13;;;-5.46
76541;BMP280;65385;55.772;37.658;2023-03-01T01:11:57;98860.84;;;-5.44
76541;BMP280;65385;55.772;37.658;2023-03-01T01:12:58;98854.47;;;-5.40
76541;BMP280;65385;55.772;37.658;2023-03-01T01:13:58;98857.03;;;-5.40
76541;BMP280;65385;55.772;37.658;2023-03-01T01:14:59;98852.25;;;-5.43
76541;BMP280;65385;55.772;37.658;2023-03-01T01:16:03;98855.75;;;-5.44
76541;BMP280;65385;55.772;37.658;2023-03-01T01:17:03;98851.00;;;-5.47
76541;BMP280;65385;55.772;37.658;2023-03-01T01:18:04;98851.00;;;-5.47
76541;BMP280;65385;55.772;37.658;2023-03-01T01:19:05;98856.44;;;-5.50
76541;BMP280;65385;55.772;37.658;2023-03-01T01:20:07;98839.25;;;-5.48
76541;BMP280;65385;55.772;37.658;2023-03-01T01:21:10;98850.41;;;-5.49
76541;BMP280;65385;55.772;37.658;2023-03-01T01:22:10;98855.03;;;-5.53
76541;BMP280;65385;55.772;37.658;2023-03-01T01:23:11;98853.13;;;-5.59
76541;BMP280;65385;55.772;37.658;2023-03-01T01:24:11;98859.81;;;-5.58
76541;BMP280;65385;55.772;37.658;2023-03-01T01:25:12;98853.94;;;-5.58
76541;BMP280;65385;55.772;37.658;2023-03-01T01:26:20;98856.44;;;-5.50
76541;BMP280;65385;55.772;37.658;2023-03-01T01:27:22;98858.03;;;-5.49
76541;BMP280;65385;55.772;37.658;2023-03-01T01:28:23;98855.19;;;-5.54
76541;BMP280;65385;55.772;37.658;2023-03-01T01:29:24;98856.16;;;-5.55
76541;BMP280;65385;55.772;37.658;2023-03-01T01:30:24;98871.63;;;-5.57
76541;BMP280;65385;55.772;37.658;2023-03-01T01:31:26;98857.59;;;-5.61
76541;BMP280;65385;55.772;37.658;2023-03-01T01:32:27;98864.44;;;-5.62
76541;BMP280;65385;55.772;37.658;2023-03-01T01:33:28;98864.13;;;-5.58
76541;BMP280;65385;55.772;37.658;2023-03-01T01:34:29;98860.47;;;-5.56
76541;BMP280;65385;55.772;37.658;2023-03-01T01:35:29;98864.25;;;-5.52
76541;BMP280;65385;55.772;37.658;2023-03-01T01:36:31;98864.34;;;-5.45
76541;BMP280;65385;55.772;37.658;2023-03-01T01:37:32;98864.34;;;-5.45
76541;BMP280;65385;55.772;37.658;2023-03-01T01:38:34;98862.75;;;-5.38
76541;BMP280;65385;55.772;37.658;2023-03-01T01:39:35;98864.16;;;-5.36
76541;BMP280;65385;55.772;37.658;2023-03-01T01:40:43;98863.38;;;-5.36
76541;BMP280;65385;55.772;37.658;2023-03-01T01:41:43;98869.41;;;-5.37
76541;BMP280;65385;55.772;37.658;2023-03-01T01:42:44;98857.66;;;-5.38
76541;BMP280;65385;55.772;37.658;2023-03-01T01:43:47;98874.34;;;-5.36
76541;BMP280;65385;55.772;37.658;2023-03-01T01:46:28;98866.56;;;-5.42
76541;BMP280;65385;55.772;37.658;2023-03-01T01:47:30;98874.53;;;-5.45
76541;BMP280;65385;55.772;37.658;2023-03-01T01:48:49;98863.13;;;-5.49
76541;BMP280;65385;55.772;37.658;2023-03-01T01:49:55;98866.63;;;-5.50
76541;BMP280;65385;55.772;37.658;2023-03-01T01:50:59;98868.22;;;-5.49
76541;BMP280;65385;55.772;37.658;2023-03-01T01:52:18;98853.75;;;-5.49
76541;BMP280;65385;55.772;37.658;2023-03-01T01:53:19;98861.66;;;-5.44
76541;BMP280;65385;55.772;37.658;2023-03-01T01:54:27;98864.66;;;-5.40
76541;BMP280;65385;55.772;37.658;2023-03-01T01:55:32;98864.50;;;-5.39
76541;BMP280;65385;55.772;37.658;2023-03-01T01:56:32;98870.38;;;-5.38
76541;BMP280;65385;55.772;37.658;2023-03-01T01:57:37;98874.19;;;-5.34
76541;BMP280;65385;55.772;37.658;2023-03-01T01:58:39;98863.00;;;-5.33
76541;BMP280;65385;55.772;37.658;2023-03-01T01:59:43;98858.81;;;-5.26
76541;BMP280;65385;55.772;37.658;2023-03-01T02:00:46;98865.84;;;-5.28
76541;BMP280;65385;55.772;37.658;2023-03-01T02:01:47;98863.91;;;-5.26
76541;BMP280;65385;55.772;37.658;2023-03-01T02:02:50;98873.00;;;-5.23
76541;BMP280;65385;55.772;37.658;2023-03-01T02:03:55;98862.97;;;-5.25
76541;BMP280;65385;55.772;37.658;2023-03-01T02:05:03;98868.69;;;-5.23
76541;BMP280;65385;55.772;37.658;2023-03-01T02:06:51;98866.31;;;-5.25
76541;BMP280;65385;55.772;37.658;2023-03-01T02:07:54;98870.94;;;-5.28
76541;BMP280;65385;55.772;37.658;2023-03-01T02:09:00;98870.06;;;-5.35
76541;BMP280;65385;55.772;37.658;2023-03-01T02:10:01;98860.19;;;-5.38
76541;BMP280;65385;55.772;37.658;2023-03-01T02:11:03;98864.03;;;-5.42
76541;BMP280;65385;55.772;37.658;2023-03-01T02:12:07;98870.06;;;-5.43
76541;BMP280;65385;55.772;37.658;2023-03-01T02:13:08;98865.66;;;-5.49
76541;BMP280;65385;55.772;37.658;2023-03-01T02:14:09;98876.66;;;-5.49
76541;BMP280;65385;55.772;37.658;2023-03-01T02:15:10;98860.91;;;-5.52
76541;BMP280;65385;55.772;37.658;2023-03-01T02:16:13;98872.34;;;-5.48
76541;BMP280;65385;55.772;37.658;2023-03-01T02:17:16;98871.72;;;-5.50
76541;BMP280;65385;55.772;37.658;2023-03-01T02:18:18;98861.53;;;-5.50
76541;BMP280;65385;55.772;37.658;2023-03-01T02:19:31;98874.59;;;-5.53
76541;BMP280;65385;55.772;37.658;2023-03-01T02:20:44;98869.19;;;-5.58
76541;BMP280;65385;55.772;37.658;2023-03-01T02:22:30;98873.81;;;-5.62
76541;BMP280;65385;55.772;37.658;2023-03-01T02:23:32;98882.31;;;-5.70
76541;BMP280;65385;55.772;37.658;2023-03-01T02:26:16;98874.06;;;-5.72
76541;BMP280;65385;55.772;37.658;2023-03-01T02:27:19;98880.25;;;-5.74
76541;BMP280;65385;55.772;37.658;2023-03-01T02:28:31;98870.88;;;-5.74
76541;BMP280;65385;55.772;37.658;2023-03-01T02:29:32;98867.69;;;-5.76
76541;BMP280;65385;55.772;37.658;2023-03-01T02:30:33;98859.44;;;-5.78
76541;BMP280;65385;55.772;37.658;2023-03-01T02:31:33;98877.22;;;-5.70
76541;BMP280;65385;55.772;37.658;2023-03-01T02:32:45;98875.94;;;-5.74
76541;BMP280;65385;55.772;37.658;2023-03-01T02:33:47;98875.94;;;-5.74
76541;BMP280;65385;55.772;37.658;2023-03-01T02:34:48;98870.88;;;-5.74
76541;BMP280;65385;55.772;37.658;2023-03-01T02:35:49;98870.56;;;-5.71
76541;BMP280;65385;55.772;37.658;2023-03-01T02:37:07;98865.13;;;-5.76
76541;BMP280;65385;55.772;37.658;2023-03-01T02:38:09;98880.91;;;-5.80
76541;BMP280;65385;55.772;37.658;2023-03-01T02:39:14;98876.34;;;-5.85
76541;BMP280;65385;55.772;37.658;2023-03-01T02:40:18;98881.88;;;-5.89
76541;BMP280;65385;55.772;37.658;2023-03-01T02:41:22;98879.69;;;-5.92
76541;BMP280;65385;55.772;37.658;2023-03-01T02:42:28;98877.47;;;-5.96
76541;BMP280;65385;55.772;37.658;2023-03-01T02:43:32;98880.19;;;-5.97
76541;BMP280;65385;55.772;37.658;2023-03-01T02:44:33;98879.38;;;-5.98
76541;BMP280;65385;55.772;37.658;2023-03-01T02:45:34;98874.59;;;-5.92
76541;BMP280;65385;55.772;37.658;2023-03-01T02:46:43;98879.66;;;-5.84
76541;BMP280;65385;55.772;37.658;2023-03-01T02:47:44;98882.38;;;-5.86
76541;BMP280;65385;55.772;37.658;2023-03-01T02:48:47;98871.25;;;-5.85
76541;BMP280;65385;55.772;37.658;2023-03-01T02:49:48;98890.63;;;-5.84
76541;BMP280;65385;55.772;37.658;2023-03-01T02:51:11;98886.81;;;-5.88
76541;BMP280;65385;55.772;37.658;2023-03-01T02:52:34;98882.41;;;-5.94
76541;BMP280;65385;55.772;37.658;2023-03-01T02:56:06;98878.28;;;-6.03
76541;BMP280;65385;55.772;37.658;2023-03-01T02:57:14;98880.19;;;-6.05
76541;BMP280;65385;55.772;37.658;2023-03-01T02:58:15;98873.22;;;-6.11
76541;BMP280;65385;55.772;37.658;2023-03-01T02:59:21;98882.28;;;-6.09
76541;BMP280;65385;55.772;37.658;2023-03-01T03:00:29;98891.66;;;-6.09
76541;BMP280;65385;55.772;37.658;2023-03-01T03:01:33;98872.13;;;-6.09
76541;BMP280;65385;55.772;37.658;2023-03-01T03:02:37;98876.06;;;-6.06
76541;BMP280;65385;55.772;37.658;2023-03-01T03:03:52;98877.81;;;-6.07
76541;BMP280;65385;55.772;37.658;2023-03-01T03:04:53;98889.13;;;-6.09
76541;BMP280;65385;55.772;37.658;2023-03-01T03:05:53;98884.34;;;-6.12
76541;BMP280;65385;55.772;37.658;2023-03-01T03:06:54;98878.66;;;-6.14
76541;BMP280;65385;55.772;37.658;2023-03-01T03:07:56;98885.00;;;-6.18
76541;BMP280;65385;55.772;37.658;2023-03-01T03:08:57;98886.75;;;-6.19
76541;BMP280;65385;55.772;37.658;2023-03-01T03:09:58;98882.63;;;-6.20
76541;BMP280;65385;55.772;37.658;2023-03-01T03:10:59;98870.69;;;-6.19
76541;BMP280;65385;55.772;37.658;2023-03-01T03:11:59;98885.78;;;-6.18
76541;BMP280;65385;55.772;37.658;2023-03-01T03:13:03;98881.97;;;-6.14
76541;BMP280;65385;55.772;37.658;2023-03-01T03:14:05;98875.94;;;-6.13
76541;BMP280;65385;55.772;37.658;2023-03-01T03:15:08;98882.75;;;-6.13
76541;BMP280;65385;55.772;37.658;2023-03-01T03:16:09;98882.59;;;-6.12
76541;BMP280;65385;55.772;37.658;2023-03-01T03:17:10;98886.91;;;-6.12
76541;BMP280;65385;55.772;37.658;2023-03-01T03:18:13;98883.09;;;-6.08
76541;BMP280;65385;55.772;37.658;2023-03-01T03:19:15;98883.41;;;-6.11
76541;BMP280;65385;55.772;37.658;2023-03-01T03:20:18;98887.22;;;-6.07
76541;BMP280;65385;55.772;37.658;2023-03-01T03:21:20;98883.75;;;-6.14
76541;BMP280;65385;55.772;37.658;2023-03-01T03:22:20;98885.00;;;-6.10
76541;BMP280;65385;55.772;37.658;2023-03-01T03:23:21;98871.31;;;-6.09
76541;BMP280;65385;55.772;37.658;2023-03-01T03:24:22;98889.59;;;-6.14
76541;BMP280;65385;55.772;37.658;2023-03-01T03:25:23;98885.50;;;-6.15
76541;BMP280;65385;55.772;37.658;2023-03-01T03:26:24;98882.44;;;-6.10
76541;BMP280;65385;55.772;37.658;2023-03-01T03:27:25;98883.41;;;-6.11
76541;BMP280;65385;55.772;37.658;2023-03-01T03:28:26;98882.28;;;-6.09
76541;BMP280;65385;55.772;37.658;2023-03-01T03:29:26;98878.00;;;-6.16
76541;BMP280;65385;55.772;37.658;2023-03-01T03:30:31;98882.97;;;-6.15
76541;BMP280;65385;55.772;37.658;2023-03-01T03:31:31;98878.97;;;-6.17
76541;BMP280;65385;55.772;37.658;2023-03-01T03:32:32;98878.16;;;-6.10
76541;BMP280;65385;55.772;37.658;2023-03-01T03:33:32;98892.47;;;-6.09
76541;BMP280;65385;55.772;37.658;2023-03-01T03:34:33;98896.63;;;-6.16
76541;BMP280;65385;55.772;37.658;2023-03-01T03:35:39;98889.44;;;-6.20
76541;BMP280;65385;55.772;37.658;2023-03-01T03:36:40;98887.72;;;-6.28
76541;BMP280;65385;55.772;37.658;2023-03-01T03:37:41;98893.59;;;-6.27
76541;BMP280;65385;55.772;37.658;2023-03-01T03:39:00;98885.38;;;-6.29
76541;BMP280;65385;55.772;37.658;2023-03-01T03:40:00;98880.28;;;-6.29
76541;BMP280;65385;55.772;37.658;2023-03-01T03:41:06;98903.16;;;-6.29
76541;BMP280;65385;55.772;37.658;2023-03-01T03:42:07;98884.38;;;-6.28
76541;BMP280;65385;55.772;37.658;2023-03-01T03:43:22;98905.72;;;-6.29
76541;BMP280;65385;55.772;37.658;2023-03-01T03:44:23;98888.84;;;-6.31
76541;BMP280;65385;55.772;37.658;2023-03-01T03:45:24;98890.59;;;-6.31
76541;BMP280;65385;55.772;37.658;2023-03-01T03:46:24;98890.75;;;-6.24
76541;BMP280;65385;55.772;37.658;2023-03-01T03:47:26;98892.50;;;-6.25
76541;BMP280;65385;55.772;37.658;2023-03-01T03:48:27;98886.63;;;-6.25
76541;BMP280;65385;55.772;37.658;2023-03-01T03:49:27;98905.03;;;-6.23
76541;BMP280;65385;55.772;37.658;2023-03-01T03:50:28;98892.03;;;-6.28
76541;BMP280;65385;55.772;37.658;2023-03-01T03:51:29;98891.25;;;-6.29
76541;BMP280;65385;55.772;37.658;2023-03-01T03:52:29;98898.22;;;-6.31
76541;BMP280;65385;55.772;37.658;2023-03-01T03:53:30;98900.91;;;-6.33
76541;BMP280;65385;55.772;37.658;2023-03-01T03:54:31;98903.78;;;-6.36
76541;BMP280;65385;55.772;37.658;2023-03-01T03:55:32;98887.13;;;-6.38
76541;BMP280;65385;55.772;37.658;2023-03-01T03:56:34;98895.81;;;-6.33
76541;BMP280;65385;55.772;37.658;2023-03-01T03:57:36;98881.09;;;-6.29
76541;BMP280;65385;55.772;37.658;2023-03-01T03:58:37;98897.09;;;-6.28
76541;BMP280;65385;55.772;37.658;2023-03-01T03:59:37;98891.84;;;-6.27
76541;BMP280;65385;55.772;37.658;2023-03-01T04:00:40;98896.78;;;-6.25
76541;BMP280;65385;55.772;37.658;2023-03-01T04:01:41;98897.91;;;-6.28
76541;BMP280;65385;55.772;37.658;2023-03-01T04:02:42;98885.03;;;-6.26
76541;BMP280;65385;55.772;37.658;2023-03-01T04:03:42;98896.78;;;-6.25
76541;BMP280;65385;55.772;37.658;2023-03-01T04:04:46;98895.81;;;-6.33
76541;BMP280;65385;55.772;37.658;2023-03-01T04:05:47;98896.63;;;-6.32
76541;BMP280;65385;55.772;37.658;2023-03-01T04:06:50;98898.53;;;-6.34
76541;BMP280;65385;55.772;37.658;2023-03-01T04:07:50;98892.84;;;-6.36
76541;BMP280;65385;55.772;37.658;2023-03-01T04:09:01;98910.94;;;-6.39
76541;BMP280;65385;55.772;37.658;2023-03-01T04:10:06;98902.69;;;-6.41
76541;BMP280;65385;55.772;37.658;2023-03-01T04:11:08;98900.63;;;-6.38
76541;BMP280;65385;55.772;37.658;2023-03-01T04:12:27;98915.38;;;-6.33
76541;BMP280;65385;55.772;37.658;2023-03-01T04:13:27;98920.44;;;-6.33
76541;BMP280;65385;55.772;37.658;2023-03-01T04:14:28;98912.66;;;-6.32
76541;BMP280;65385;55.772;37.658;2023-03-01T04:15:30;98905.53;;;-6.28
76541;BMP280;65385;55.772;37.658;2023-03-01T04:16:30;98916.47;;;-6.27
76541;BMP280;65385;55.772;37.658;2023-03-01T04:17:31;98919.34;;;-6.31
76541;BMP280;65385;55.772;37.658;2023-03-01T04:18:31;98919.97;;;-6.28
76541;BMP280;65385;55.772;37.658;2023-03-01T04:19:32;98915.06;;;-6.30
76541;BMP280;65385;55.772;37.658;2023-03-01T04:20:36;98918.22;;;-6.28
76541;BMP280;65385;55.772;37.658;2023-03-01T04:21:36;98912.03;;;-6.25
76541;BMP280;65385;55.772;37.658;2023-03-01T04:22:38;98921.09;;;-6.23
76541;BMP280;65385;55.772;37.658;2023-03-01T04:23:40;98920.16;;;-6.22
76541;BMP280;65385;55.772;37.658;2023-03-01T04:24:41;98918.41;;;-6.21
76541;BMP280;65385;55.772;37.658;2023-03-01T04:25:53;98919.63;;;-6.17
76541;BMP280;65385;55.772;37.658;2023-03-01T04:26:57;98911.22;;;-6.10
76541;BMP280;65385;55.772;37.658;2023-03-01T04:27:57;98914.72;;;-6.11
76541;BMP280;65385;55.772;37.658;2023-03-01T04:28:58;98922.81;;;-6.07
76541;BMP280;65385;55.772;37.658;2023-03-01T04:29:58;98921.69;;;-6.05
76541;BMP280;65385;55.772;37.658;2023-03-01T04:31:05;98930.25;;;-5.98
76541;BMP280;65385;55.772;37.658;2023-03-01T04:32:13;98915.47;;;-5.94
76541;BMP280;65385;55.772;37.658;2023-03-01T04:33:16;98921.75;;;-5.74
76541;BMP280;65385;55.772;37.658;2023-03-01T04:34:17;98926.47;;;-5.63
76541;BMP280;65385;55.772;37.658;2023-03-01T04:35:17;98919.13;;;-5.49
76541;BMP280;65385;55.772;37.658;2023-03-01T04:36:21;98917.13;;;-5.31
76541;BMP280;65385;55.772;37.658;2023-03-01T04:37:22;98924.72;;;-5.23
76541;BMP280;65385;55.772;37.658;2023-03-01T04:38:24;98919.84;;;-5.10
76541;BMP280;65385;55.772;37.658;2023-03-01T04:39:24;98920.53;;;-4.93
76541;BMP280;65385;55.772;37.658;2023-03-01T04:40:25;98919.38;;;-4.82
76541;BMP280;65385;55.772;37.658;2023-03-01T04:41:25;98920.56;;;-4.70
76541;BMP280;65385;55.772;37.658;2023-03-01T04:42:26;98924.53;;;-4.53
76541;BMP280;65385;55.772;37.658;2023-03-01T04:43:27;98923.00;;;-4.39
76541;BMP280;65385;55.772;37.658;2023-03-01T04:44:27;98926.16;;;-4.23
76541;BMP280;65385;55.772;37.658;2023-03-01T04:45:28;98919.75;;;-4.04
76541;BMP280;65385;55.772;37.658;2023-03-01T04:46:28;98925.22;;;-3.92
76541;BMP280;65385;55.772;37.658;2023-03-01T04:47:29;98915.34;;;-3.81
76541;BMP280;65385;55.772;37.658;2023-03-01T04:48:30;98922.75;;;-3.71
76541;BMP280;65385;55.772;37.658;2023-03-01T04:49:31;98932.31;;;-3.58
76541;BMP280;65385;55.772;37.658;2023-03-01T04:50:31;98919.78;;;-3.53
76541;BMP280;65385;55.772;37.658;2023-03-01T04:51:33;98918.91;;;-3.46
76541;BMP280;65385;55.772;37.658;2023-03-01T04:52:34;98919.94;;;-3.40
76541;BMP280;65385;55.772;37.658;2023-03-01T04:53:35;98923.34;;;-3.33
76541;BMP280;65385;55.772;37.658;2023-03-01T04:54:38;98914.53;;;-3.30
76541;BMP280;65385;55.772;37.658;2023-03-01T04:55:39;98928.34;;;-3.25
76541;BMP280;65385;55.772;37.658;2023-03-01T04:56:39;98924.88;;;-3.38
76541;BMP280;65385;55.772;37.658;2023-03-01T04:57:40;98931.69;;;-3.46
76541;BMP280;65385;55.772;37.658;2023-03-01T04:58:41;98922.75;;;-3.50
76541;BMP280;65385;55.772;37.658;2023-03-01T04:59:41;98924.72;;;-3.52
76541;BMP280;65385;55.772;37.658;2023-03-01T05:00:42;98919.66;;;-3.66
76541;BMP280;65385;55.772;37.658;2023-03-01T05:01:42;98927.22;;;-3.73
76541;BMP280;65385;55.772;37.658;2023-03-01T05:02:43;98928.81;;;-3.72
76541;BMP280;65385;55.772;37.658;2023-03-01T05:03:49;98926.16;;;-3.79
76541;BMP280;65385;55.772;37.658;2023-03-01T05:04:49;98926.88;;;-3.85
76541;BMP280;65385;55.772;37.658;2023-03-01T05:05:51;98929.03;;;-3.88
76541;BMP280;65385;55.772;37.658;2023-03-01T05:06:52;98928.75;;;-3.93
76541;BMP280;65385;55.772;37.658;2023-03-01T05:07:56;98932.25;;;-3.94
76541;BMP280;65385;55.772;37.658;2023-03-01T05:08:57;98941.56;;;-3.87
76541;BMP280;65385;55.772;37.658;2023-03-01T05:09:58;98936.69;;;-3.88
76541;BMP280;65385;55.772;37.658;2023-03-01T05:10:59;98937.47;;;-3.88
76541;BMP280;65385;55.772;37.658;2023-03-01T05:12:00;98931.56;;;-3.88
76541;BMP280;65385;55.772;37.658;2023-03-01T05:13:02;98941.56;;;-3.87
76541;BMP280;65385;55.772;37.658;2023-03-01T05:14:04;98938.94;;;-3.93
76541;BMP280;65385;55.772;37.658;2023-03-01T05:15:05;98940.44;;;-3.99
76541;BMP280;65385;55.772;37.658;2023-03-01T05:16:08;98938.84;;;-4.00
76541;BMP280;65385;55.772;37.658;2023-03-01T05:17:11;98948.81;;;-4.05
76541;BMP280;65385;55.772;37.658;2023-03-01T05:18:11;98948.19;;;-4.07
76541;BMP280;65385;55.772;37.658;2023-03-01T05:19:12;98947.75;;;-4.10
76541;BMP280;65385;55.772;37.658;2023-03-01T05:20:15;98945.28;;;-3.89
76541;BMP280;65385;55.772;37.658;2023-03-01T05:21:16;98946.06;;;-3.74
76541;BMP280;65385;55.772;37.658;2023-03-01T05:22:17;98948.94;;;-3.48
76541;BMP280;65385;55.772;37.658;2023-03-01T05:23:17;98942.56;;;-3.22
76541;BMP280;65385;55.772;37.658;2023-03-01T05:24:18;98947.56;;;-2.93
76541;BMP280;65385;55.772;37.658;2023-03-01T05:25:19;98960.53;;;-2.67
76541;BMP280;65385;55.772;37.658;2023-03-01T05:26:21;98951.50;;;-2.41
76541;BMP280;65385;55.772;37.658;2023-03-01T05:27:22;98945.78;;;-2.15
76541;BMP280;65385;55.772;37.658;2023-03-01T05:28:22;98947.94;;;-1.78
76541;BMP280;65385;55.772;37.658;2023-03-01T05:29:24;98948.03;;;-1.45
76541;BMP280;65385;55.772;37.658;2023-03-01T05:30:25;98959.19;;;-1.11
76541;BMP280;65385;55.772;37.658;2023-03-01T05:31:25;98951.69;;;-0.87
76541;BMP280;65385;55.772;37.658;2023-03-01T05:32:26;98953.84;;;-0.64
76541;BMP280;65385;55.772;37.658;2023-03-01T05:33:27;98953.44;;;-0.48
76541;BMP280;65385;55.772;37.658;2023-03-01T05:34:30;98965.47;;;-0.42
76541;BMP280;65385;55.772;37.658;2023-03-01T05:35:32;98955.63;;;-0.45
76541;BMP280;65385;55.772;37.658;2023-03-01T05:36:33;98961.16;;;-0.48
76541;BMP280;65385;55.772;37.658;2023-03-01T05:37:34;98954.06;;;-0.52
76541;BMP280;65385;55.772;37.658;2023-03-01T05:38:36;98954.66;;;-0.70
76541;BMP280;65385;55.772;37.658;2023-03-01T05:39:37;98955.03;;;-0.86
76541;BMP280;65385;55.772;37.658;2023-03-01T05:40:37;98955.22;;;-1.01
76541;BMP280;65385;55.772;37.658;2023-03-01T05:41:38;98958.56;;;-1.13
76541;BMP280;65385;55.772;37.658;2023-03-01T05:42:52;98953.03;;;-1.24
76541;BMP280;65385;55.772;37.658;2023-03-01T05:43:54;98964.16;;;-1.58
76541;BMP280;65385;55.772;37.658;2023-03-01T05:44:54;98963.13;;;-1.76
76541;BMP280;65385;55.772;37.658;2023-03-01T05:45:57;98965.19;;;-1.93
76541;BMP280;65385;55.772;37.658;2023-03-01T05:46:58;98966.53;;;-1.97
76541;BMP280;65385;55.772;37.658;2023-03-01T05:47:58;98969.47;;;-2.07
76541;BMP280;65385;55.772;37.658;2023-03-01T05:48:59;98969.00;;;-2.17
76541;BMP280;65385;55.772;37.658;2023-03-01T05:50:00;98973.28;;;-2.24
76541;BMP280;65385;55.772;37.658;2023-03-01T05:51:01;98965.53;;;-2.31
76541;BMP280;65385;55.772;37.658;2023-03-01T05:52:01;98980.84;;;-2.37
76541;BMP280;65385;55.772;37.658;2023-03-01T05:53:07;98969.19;;;-2.46
76541;BMP280;65385;55.772;37.658;2023-03-01T05:54:09;98975.19;;;-2.60
76541;BMP280;65385;55.772;37.658;2023-03-01T05:55:10;98968.97;;;-2.73
76541;BMP280;65385;55.772;37.658;2023-03-01T05:56:11;98976.16;;;-2.83
76541;BMP280;65385;55.772;37.658;2023-03-01T05:57:11;98981.22;;;-2.89
76541;BMP280;65385;55.772;37.658;2023-03-01T05:58:14;98974.03;;;-3.00
76541;BMP280;65385;55.772;37.658;2023-03-01T05:59:15;98978.69;;;-3.04
76541;BMP280;65385;55.772;37.658;2023-03-01T06:00:18;98978.63;;;-3.11
76541;BMP280;65385;55.772;37.658;2023-03-01T06:01:19;98985.09;;;-3.15